Flight Track Log - Related Links

Times and Time Zones

All times are in EDT time to prevent confusion due to time zone crossing. See the N12502 flight status page for this flight to view local times or setup timezone preferences in your user account.


Time Position Orientation Groundspeed Altitude Reporting Facility
EDT Latitude Longitude Course Direction KTS MPH feet Rate Location/Type
Wed 09:55:00 AM 40.1073 -88.0001 70° East  Level FlightAware Approximate
Wed 09:56:00 AM 40.1193 -87.9555 71° East  Level FlightAware Approximate
Wed 09:57:00 AM 40.1313 -87.9109 71° East  Level FlightAware Approximate
Wed 09:58:00 AM 40.1433 -87.8663 71° East  Level FlightAware Approximate
Wed 09:59:00 AM 40.1553 -87.8216 71° East  Level FlightAware Approximate
Wed 10:00:00 AM 40.1672 -87.7769 71° East  Level FlightAware Approximate
Wed 10:01:00 AM 40.1792 -87.7323 71° East  Level FlightAware Approximate
Wed 10:02:00 AM 40.1919 -87.6880 69° East  Level FlightAware Approximate
Wed 10:03:00 AM 40.2051 -87.6439 69° East  Level FlightAware Approximate
Wed 10:04:00 AM 40.2182 -87.5998 69° East  Level FlightAware Approximate
Wed 10:05:00 AM 40.2313 -87.5556 69° East  Level FlightAware Approximate
Wed 10:06:00 AM 40.2444 -87.5115 69° East  Level FlightAware Approximate
Wed 10:07:00 AM 40.2575 -87.4673 69° East  Level FlightAware Approximate
Wed 10:08:00 AM 40.2706 -87.4231 69° East  Level FlightAware Approximate
Wed 10:09:00 AM 40.2836 -87.3789 69° East  Level FlightAware Approximate
Wed 10:10:00 AM 40.2967 -87.3347 69° East  Level FlightAware Approximate
Wed 10:11:00 AM 40.3097 -87.2904 69° East  Level FlightAware Approximate
Wed 10:12:00 AM 40.3219 -87.2458 72° East  Level FlightAware Approximate
Wed 10:13:00 AM 40.3332 -87.2007 72° East  Level FlightAware Approximate
Wed 10:14:00 AM 40.3445 -87.1557 72° East  Level FlightAware Approximate
Wed 10:15:00 AM 40.3557 -87.1106 72° East  Level FlightAware Approximate
Wed 10:16:00 AM 40.3670 -87.0655 72° East  Level FlightAware Approximate
Wed 10:17:00 AM 40.3783 -87.0203 72° East  Level FlightAware Approximate
Wed 10:18:00 AM 40.3895 -86.9752 72° East  Level FlightAware Approximate
Wed 10:19:00 AM 40.4000 -86.9333 72° East  Level FlightAware Approximate
Wed 10:20:00 AM 40.4123 -86.9369 270° West  Level Estimated
Wed 10:21:00 AM 40.4123 -86.9369 72° East  Level Estimated

Login

Don't have an account? Register now (free) for customized features, flight alerts, and more!